sensor_id;sensor_type;location;lat;lon;timestamp;pressure;altitude;pressure_sealevel;temperature;humidity
54876;BME280;40764;48.472;8.166;2022-10-20T00:05:49;98397.88;;;12.14;100.00
54876;BME280;40764;48.472;8.166;2022-10-20T00:11:52;98389.03;;;12.03;100.00
54876;BME280;40764;48.472;8.166;2022-10-20T00:17:52;98371.31;;;11.82;100.00
54876;BME280;40764;48.472;8.166;2022-10-20T00:23:54;98358.28;;;11.73;100.00
54876;BME280;40764;48.472;8.166;2022-10-20T00:29:55;98345.59;;;11.77;100.00
54876;BME280;40764;48.472;8.166;2022-10-20T00:35:59;98338.59;;;12.04;100.00
54876;BME280;40764;48.472;8.166;2022-10-20T00:42:04;98324.19;;;11.98;100.00
54876;BME280;40764;48.472;8.166;2022-10-20T00:48:11;98318.81;;;12.07;100.00
54876;BME280;40764;48.472;8.166;2022-10-20T00:54:16;98310.78;;;11.97;100.00
54876;BME280;40764;48.472;8.166;2022-10-20T01:00:17;98313.31;;;11.93;100.00
54876;BME280;40764;48.472;8.166;2022-10-20T01:06:21;98312.31;;;12.03;100.00
54876;BME280;40764;48.472;8.166;2022-10-20T01:12:37;98296.91;;;12.07;100.00
54876;BME280;40764;48.472;8.166;2022-10-20T01:18:56;98303.38;;;11.97;100.00
54876;BME280;40764;48.472;8.166;2022-10-20T01:25:18;98296.06;;;11.93;100.00
54876;BME280;40764;48.472;8.166;2022-10-20T01:31:31;98290.09;;;11.91;100.00
54876;BME280;40764;48.472;8.166;2022-10-20T01:37:46;98283.72;;;12.09;100.00
54876;BME280;40764;48.472;8.166;2022-10-20T01:43:50;98277.81;;;12.02;100.00
54876;BME280;40764;48.472;8.166;2022-10-20T01:49:52;98278.53;;;12.07;100.00
54876;BME280;40764;48.472;8.166;2022-10-20T01:55:54;98276.00;;;12.11;100.00
54876;BME280;40764;48.472;8.166;2022-10-20T02:14:30;98249.91;;;12.14;100.00
54876;BME280;40764;48.472;8.166;2022-10-20T02:20:32;98248.53;;;12.16;100.00
54876;BME280;40764;48.472;8.166;2022-10-20T02:26:33;98241.91;;;12.17;100.00
54876;BME280;40764;48.472;8.166;2022-10-20T02:32:35;98243.22;;;12.06;100.00
54876;BME280;40764;48.472;8.166;2022-10-20T02:38:36;98240.81;;;12.18;100.00
54876;BME280;40764;48.472;8.166;2022-10-20T02:44:37;98248.81;;;12.28;100.00
54876;BME280;40764;48.472;8.166;2022-10-20T02:50:38;98247.16;;;12.41;100.00
54876;BME280;40764;48.472;8.166;2022-10-20T02:56:38;98250.53;;;12.38;100.00
54876;BME280;40764;48.472;8.166;2022-10-20T03:02:38;98253.16;;;12.29;100.00
54876;BME280;40764;48.472;8.166;2022-10-20T03:08:39;98251.31;;;12.38;100.00
54876;BME280;40764;48.472;8.166;2022-10-20T03:14:40;98246.78;;;12.20;100.00
54876;BME280;40764;48.472;8.166;2022-10-20T03:20:55;98236.13;;;12.19;100.00
54876;BME280;40764;48.472;8.166;2022-10-20T03:26:55;98230.16;;;12.17;100.00
54876;BME280;40764;48.472;8.166;2022-10-20T03:32:55;98226.38;;;12.13;100.00
54876;BME280;40764;48.472;8.166;2022-10-20T03:38:56;98215.41;;;12.13;100.00
54876;BME280;40764;48.472;8.166;2022-10-20T03:44:56;98216.13;;;12.04;100.00
54876;BME280;40764;48.472;8.166;2022-10-20T03:50:57;98213.88;;;12.06;100.00
54876;BME280;40764;48.472;8.166;2022-10-20T03:56:58;98206.09;;;11.86;100.00
54876;BME280;40764;48.472;8.166;2022-10-20T04:02:58;98204.16;;;12.00;100.00
54876;BME280;40764;48.472;8.166;2022-10-20T04:08:58;98202.84;;;11.98;100.00
54876;BME280;40764;48.472;8.166;2022-10-20T04:14:59;98211.56;;;12.00;100.00
54876;BME280;40764;48.472;8.166;2022-10-20T04:20:59;98203.84;;;12.02;100.00
54876;BME280;40764;48.472;8.166;2022-10-20T04:26:59;98197.06;;;11.86;100.00
54876;BME280;40764;48.472;8.166;2022-10-20T04:33:00;98185.06;;;11.82;100.00
54876;BME280;40764;48.472;8.166;2022-10-20T04:39:00;98174.31;;;11.85;100.00
54876;BME280;40764;48.472;8.166;2022-10-20T04:45:01;98164.50;;;11.98;100.00
54876;BME280;40764;48.472;8.166;2022-10-20T04:51:06;98156.88;;;11.81;100.00
54876;BME280;40764;48.472;8.166;2022-10-20T04:57:07;98141.06;;;11.78;100.00
54876;BME280;40764;48.472;8.166;2022-10-20T05:03:17;98125.63;;;11.82;100.00
54876;BME280;40764;48.472;8.166;2022-10-20T05:09:20;98120.16;;;11.82;100.00
54876;BME280;40764;48.472;8.166;2022-10-20T05:15:20;98122.06;;;11.82;100.00
54876;BME280;40764;48.472;8.166;2022-10-20T05:21:23;98142.38;;;11.81;100.00
54876;BME280;40764;48.472;8.166;2022-10-20T05:27:24;98150.41;;;11.91;100.00
54876;BME280;40764;48.472;8.166;2022-10-20T05:33:25;98168.00;;;12.12;100.00
54876;BME280;40764;48.472;8.166;2022-10-20T05:39:25;98177.38;;;11.97;100.00
54876;BME280;40764;48.472;8.166;2022-10-20T05:45:36;98174.13;;;11.82;100.00
54876;BME280;40764;48.472;8.166;2022-10-20T05:51:36;98184.44;;;11.71;100.00
54876;BME280;40764;48.472;8.166;2022-10-20T05:57:36;98180.19;;;11.78;100.00
54876;BME280;40764;48.472;8.166;2022-10-20T06:03:37;98175.22;;;11.81;100.00
54876;BME280;40764;48.472;8.166;2022-10-20T06:09:38;98163.91;;;11.87;100.00
54876;BME280;40764;48.472;8.166;2022-10-20T06:15:39;98161.63;;;12.03;100.00
54876;BME280;40764;48.472;8.166;2022-10-20T06:21:39;98160.09;;;12.10;100.00
54876;BME280;40764;48.472;8.166;2022-10-20T06:27:40;98178.38;;;12.01;100.00
54876;BME280;40764;48.472;8.166;2022-10-20T06:33:41;98187.94;;;11.90;100.00
54876;BME280;40764;48.472;8.166;2022-10-20T06:39:42;98188.63;;;11.96;100.00
54876;BME280;40764;48.472;8.166;2022-10-20T06:45:42;98192.78;;;12.07;100.00
54876;BME280;40764;48.472;8.166;2022-10-20T06:51:43;98199.25;;;12.38;100.00
54876;BME280;40764;48.472;8.166;2022-10-20T06:57:43;98191.09;;;12.61;100.00
54876;BME280;40764;48.472;8.166;2022-10-20T07:03:45;98195.84;;;12.69;100.00
54876;BME280;40764;48.472;8.166;2022-10-20T07:09:45;98192.44;;;12.86;100.00
54876;BME280;40764;48.472;8.166;2022-10-20T07:15:46;98177.94;;;13.08;100.00
54876;BME280;40764;48.472;8.166;2022-10-20T07:21:46;98179.03;;;13.51;98.58
54876;BME280;40764;48.472;8.166;2022-10-20T07:27:47;98179.09;;;13.60;97.14
54876;BME280;40764;48.472;8.166;2022-10-20T07:33:47;98176.63;;;13.58;97.23
54876;BME280;40764;48.472;8.166;2022-10-20T07:39:48;98177.06;;;13.74;96.98
54876;BME280;40764;48.472;8.166;2022-10-20T07:45:48;98174.16;;;13.79;97.20
54876;BME280;40764;48.472;8.166;2022-10-20T07:51:48;98171.66;;;14.00;97.26
54876;BME280;40764;48.472;8.166;2022-10-20T07:57:49;98210.09;;;14.40;95.84
54876;BME280;40764;48.472;8.166;2022-10-20T08:03:49;98228.94;;;14.46;94.64
54876;BME280;40764;48.472;8.166;2022-10-20T08:09:50;98248.88;;;14.21;95.62
54876;BME280;40764;48.472;8.166;2022-10-20T08:15:50;98247.28;;;14.37;96.55
54876;BME280;40764;48.472;8.166;2022-10-20T08:21:51;98277.38;;;14.99;94.07
54876;BME280;40764;48.472;8.166;2022-10-20T08:27:51;98269.00;;;15.22;93.57
54876;BME280;40764;48.472;8.166;2022-10-20T08:33:51;98282.25;;;15.28;93.33
54876;BME280;40764;48.472;8.166;2022-10-20T08:39:52;98277.59;;;15.63;92.48
54876;BME280;40764;48.472;8.166;2022-10-20T08:45:52;98262.81;;;15.76;92.75
54876;BME280;40764;48.472;8.166;2022-10-20T08:51:52;98258.00;;;16.11;91.16
54876;BME280;40764;48.472;8.166;2022-10-20T08:57:57;98265.28;;;16.54;89.38
54876;BME280;40764;48.472;8.166;2022-10-20T09:04:11;98256.31;;;16.66;88.45
54876;BME280;40764;48.472;8.166;2022-10-20T09:16:28;98238.97;;;16.86;88.32
54876;BME280;40764;48.472;8.166;2022-10-20T09:22:29;98248.09;;;17.08;87.87
54876;BME280;40764;48.472;8.166;2022-10-20T09:28:30;98244.84;;;17.06;88.80
54876;BME280;40764;48.472;8.166;2022-10-20T09:34:33;98227.31;;;17.01;89.39
54876;BME280;40764;48.472;8.166;2022-10-20T09:40:34;98227.88;;;17.16;89.49
54876;BME280;40764;48.472;8.166;2022-10-20T09:46:46;98214.25;;;17.31;87.53
54876;BME280;40764;48.472;8.166;2022-10-20T09:52:47;98190.16;;;17.20;87.64
54876;BME280;40764;48.472;8.166;2022-10-20T09:58:48;98198.19;;;17.13;88.51
54876;BME280;40764;48.472;8.166;2022-10-20T10:04:52;98205.94;;;17.31;86.63
54876;BME280;40764;48.472;8.166;2022-10-20T10:11:02;98203.41;;;17.59;85.20
54876;BME280;40764;48.472;8.166;2022-10-20T10:17:03;98220.75;;;17.69;85.97
54876;BME280;40764;48.472;8.166;2022-10-20T10:23:15;98210.63;;;17.85;86.46
54876;BME280;40764;48.472;8.166;2022-10-20T10:29:29;98198.88;;;17.76;84.60
54876;BME280;40764;48.472;8.166;2022-10-20T10:35:39;98173.44;;;17.82;85.23
54876;BME280;40764;48.472;8.166;2022-10-20T10:48:26;98181.59;;;17.79;85.07
54876;BME280;40764;48.472;8.166;2022-10-20T11:20:26;98171.25;;;18.12;84.92
54876;BME280;40764;48.472;8.166;2022-10-20T11:26:32;98165.41;;;18.02;84.52
54876;BME280;40764;48.472;8.166;2022-10-20T11:32:41;98155.03;;;17.99;83.71
54876;BME280;40764;48.472;8.166;2022-10-20T11:38:53;98122.16;;;18.09;84.15
54876;BME280;40764;48.472;8.166;2022-10-20T11:44:55;98111.44;;;18.20;84.69
54876;BME280;40764;48.472;8.166;2022-10-20T11:57:34;98117.84;;;18.48;83.29
54876;BME280;40764;48.472;8.166;2022-10-20T12:04:03;98118.22;;;18.35;83.51
54876;BME280;40764;48.472;8.166;2022-10-20T12:22:54;98091.28;;;18.72;85.79
54876;BME280;40764;48.472;8.166;2022-10-20T12:35:57;98073.06;;;18.99;84.51
54876;BME280;40764;48.472;8.166;2022-10-20T12:42:02;98084.31;;;19.18;83.84
54876;BME280;40764;48.472;8.166;2022-10-20T12:48:06;98082.25;;;19.31;81.29
54876;BME280;40764;48.472;8.166;2022-10-20T12:54:17;98086.03;;;19.38;80.46
54876;BME280;40764;48.472;8.166;2022-10-20T13:12:26;98083.91;;;19.04;85.27
54876;BME280;40764;48.472;8.166;2022-10-20T13:18:44;98074.50;;;18.93;85.92
54876;BME280;40764;48.472;8.166;2022-10-20T13:24:46;98069.50;;;18.98;87.20
54876;BME280;40764;48.472;8.166;2022-10-20T13:43:43;98065.47;;;18.96;90.72
54876;BME280;40764;48.472;8.166;2022-10-20T13:50:09;98060.69;;;19.08;89.05
54876;BME280;40764;48.472;8.166;2022-10-20T14:02:25;98053.28;;;19.12;88.83
54876;BME280;40764;48.472;8.166;2022-10-20T14:08:26;98042.44;;;19.07;88.43
54876;BME280;40764;48.472;8.166;2022-10-20T14:14:28;98045.13;;;19.04;88.37
54876;BME280;40764;48.472;8.166;2022-10-20T14:20:30;98040.19;;;18.97;88.88
54876;BME280;40764;48.472;8.166;2022-10-20T14:26:32;98046.38;;;18.78;90.65
54876;BME280;40764;48.472;8.166;2022-10-20T14:32:37;98043.47;;;18.59;90.76
54876;BME280;40764;48.472;8.166;2022-10-20T14:38:39;98068.47;;;18.22;90.90
54876;BME280;40764;48.472;8.166;2022-10-20T14:44:42;98065.03;;;17.89;91.66
54876;BME280;40764;48.472;8.166;2022-10-20T14:50:43;98075.38;;;17.92;91.59
54876;BME280;40764;48.472;8.166;2022-10-20T14:56:45;98085.78;;;17.71;93.21
54876;BME280;40764;48.472;8.166;2022-10-20T15:02:47;98103.69;;;17.52;93.45
54876;BME280;40764;48.472;8.166;2022-10-20T15:08:55;98087.84;;;17.28;95.00
54876;BME280;40764;48.472;8.166;2022-10-20T15:21:26;98098.31;;;17.23;97.84
54876;BME280;40764;48.472;8.166;2022-10-20T15:27:26;98097.44;;;16.98;98.94
54876;BME280;40764;48.472;8.166;2022-10-20T15:33:27;98084.47;;;16.78;100.00
54876;BME280;40764;48.472;8.166;2022-10-20T15:39:27;98065.16;;;16.78;100.00
54876;BME280;40764;48.472;8.166;2022-10-20T15:45:33;98051.91;;;16.50;100.00
54876;BME280;40764;48.472;8.166;2022-10-20T15:51:39;98046.78;;;16.40;100.00
54876;BME280;40764;48.472;8.166;2022-10-20T15:57:40;98045.44;;;16.25;100.00
54876;BME280;40764;48.472;8.166;2022-10-20T16:03:40;98039.50;;;16.35;100.00
54876;BME280;40764;48.472;8.166;2022-10-20T16:09:42;98041.34;;;16.31;100.00
54876;BME280;40764;48.472;8.166;2022-10-20T16:15:42;98027.31;;;16.16;100.00
54876;BME280;40764;48.472;8.166;2022-10-20T16:21:43;98031.91;;;16.11;100.00
54876;BME280;40764;48.472;8.166;2022-10-20T16:27:43;98025.53;;;15.99;100.00
54876;BME280;40764;48.472;8.166;2022-10-20T16:33:44;98015.50;;;15.94;100.00
54876;BME280;40764;48.472;8.166;2022-10-20T16:39:45;98024.72;;;15.98;100.00
54876;BME280;40764;48.472;8.166;2022-10-20T16:45:45;98029.28;;;15.94;100.00
54876;BME280;40764;48.472;8.166;2022-10-20T16:51:45;98029.16;;;15.91;100.00
54876;BME280;40764;48.472;8.166;2022-10-20T16:57:46;98025.19;;;16.00;100.00
54876;BME280;40764;48.472;8.166;2022-10-20T17:03:48;98034.16;;;15.89;100.00
54876;BME280;40764;48.472;8.166;2022-10-20T17:09:48;98027.22;;;15.83;100.00
54876;BME280;40764;48.472;8.166;2022-10-20T17:15:49;98026.69;;;15.68;100.00
54876;BME280;40764;48.472;8.166;2022-10-20T17:21:49;98034.09;;;15.76;100.00
54876;BME280;40764;48.472;8.166;2022-10-20T17:27:50;98034.66;;;15.91;100.00
54876;BME280;40764;48.472;8.166;2022-10-20T17:33:50;98023.41;;;15.75;100.00
54876;BME280;40764;48.472;8.166;2022-10-20T17:39:51;98020.22;;;15.64;100.00
54876;BME280;40764;48.472;8.166;2022-10-20T17:45:59;98021.16;;;15.68;100.00
54876;BME280;40764;48.472;8.166;2022-10-20T17:51:59;98004.63;;;15.68;100.00
54876;BME280;40764;48.472;8.166;2022-10-20T17:58:00;98013.03;;;15.72;100.00
54876;BME280;40764;48.472;8.166;2022-10-20T18:04:06;98017.06;;;15.74;100.00
54876;BME280;40764;48.472;8.166;2022-10-20T18:10:07;98012.22;;;15.71;100.00
54876;BME280;40764;48.472;8.166;2022-10-20T18:16:10;98009.34;;;15.68;100.00
54876;BME280;40764;48.472;8.166;2022-10-20T18:22:11;98005.47;;;15.60;100.00
54876;BME280;40764;48.472;8.166;2022-10-20T18:28:11;98020.84;;;15.70;100.00
54876;BME280;40764;48.472;8.166;2022-10-20T18:34:16;98019.56;;;15.67;100.00
54876;BME280;40764;48.472;8.166;2022-10-20T18:40:17;98006.38;;;15.73;100.00
54876;BME280;40764;48.472;8.166;2022-10-20T18:46:17;97995.84;;;15.75;100.00
54876;BME280;40764;48.472;8.166;2022-10-20T18:52:17;98000.47;;;15.83;100.00
54876;BME280;40764;48.472;8.166;2022-10-20T18:58:18;97987.22;;;15.76;100.00
54876;BME280;40764;48.472;8.166;2022-10-20T19:04:18;97984.94;;;15.78;100.00
54876;BME280;40764;48.472;8.166;2022-10-20T19:10:19;97982.19;;;15.78;100.00
54876;BME280;40764;48.472;8.166;2022-10-20T19:16:22;97988.84;;;15.77;100.00
54876;BME280;40764;48.472;8.166;2022-10-20T19:22:22;97978.34;;;15.71;100.00
54876;BME280;40764;48.472;8.166;2022-10-20T19:28:23;97962.69;;;15.63;100.00
54876;BME280;40764;48.472;8.166;2022-10-20T19:34:29;97959.94;;;15.63;100.00
54876;BME280;40764;48.472;8.166;2022-10-20T19:40:30;97956.78;;;15.73;100.00
54876;BME280;40764;48.472;8.166;2022-10-20T19:46:30;97986.91;;;15.78;100.00
54876;BME280;40764;48.472;8.166;2022-10-20T19:52:30;97976.75;;;15.70;100.00
54876;BME280;40764;48.472;8.166;2022-10-20T19:58:31;97984.81;;;15.75;100.00
54876;BME280;40764;48.472;8.166;2022-10-20T20:04:31;97987.63;;;15.66;100.00
54876;BME280;40764;48.472;8.166;2022-10-20T20:10:33;97979.16;;;15.71;100.00
54876;BME280;40764;48.472;8.166;2022-10-20T20:16:33;97993.63;;;15.89;100.00
54876;BME280;40764;48.472;8.166;2022-10-20T20:22:34;97974.47;;;15.72;100.00
54876;BME280;40764;48.472;8.166;2022-10-20T20:28:34;97956.19;;;15.67;100.00
54876;BME280;40764;48.472;8.166;2022-10-20T20:34:35;97959.75;;;15.68;100.00
54876;BME280;40764;48.472;8.166;2022-10-20T20:40:35;97956.13;;;15.76;100.00
54876;BME280;40764;48.472;8.166;2022-10-20T20:46:35;97960.34;;;15.73;100.00
54876;BME280;40764;48.472;8.166;2022-10-20T20:52:36;97952.31;;;15.60;100.00
54876;BME280;40764;48.472;8.166;2022-10-20T20:58:36;97947.19;;;15.49;100.00
54876;BME280;40764;48.472;8.166;2022-10-20T21:04:36;97957.13;;;15.42;100.00
54876;BME280;40764;48.472;8.166;2022-10-20T21:10:37;97962.69;;;15.33;100.00
54876;BME280;40764;48.472;8.166;2022-10-20T21:16:37;97954.50;;;15.16;100.00
54876;BME280;40764;48.472;8.166;2022-10-20T21:22:37;97940.72;;;15.16;100.00
54876;BME280;40764;48.472;8.166;2022-10-20T21:28:38;97950.78;;;15.12;100.00
54876;BME280;40764;48.472;8.166;2022-10-20T21:34:39;97937.03;;;15.03;100.00
54876;BME280;40764;48.472;8.166;2022-10-20T21:40:39;97932.38;;;14.95;100.00
54876;BME280;40764;48.472;8.166;2022-10-20T21:46:41;97934.84;;;14.88;100.00
54876;BME280;40764;48.472;8.166;2022-10-20T21:52:48;97931.00;;;14.80;100.00
54876;BME280;40764;48.472;8.166;2022-10-20T21:58:48;97928.91;;;14.77;100.00
54876;BME280;40764;48.472;8.166;2022-10-20T22:04:49;97930.38;;;14.75;100.00
54876;BME280;40764;48.472;8.166;2022-10-20T22:10:49;97933.13;;;14.75;100.00
54876;BME280;40764;48.472;8.166;2022-10-20T22:16:49;97937.88;;;14.57;100.00
54876;BME280;40764;48.472;8.166;2022-10-20T22:22:50;97931.41;;;14.36;100.00
54876;BME280;40764;48.472;8.166;2022-10-20T22:28:51;97930.28;;;14.28;100.00
54876;BME280;40764;48.472;8.166;2022-10-20T22:34:51;97910.38;;;14.31;100.00
54876;BME280;40764;48.472;8.166;2022-10-20T22:40:56;97913.00;;;14.27;100.00
54876;BME280;40764;48.472;8.166;2022-10-20T22:46:57;97923.50;;;14.25;100.00
54876;BME280;40764;48.472;8.166;2022-10-20T22:52:57;97920.13;;;14.20;100.00
54876;BME280;40764;48.472;8.166;2022-10-20T22:58:57;97909.44;;;14.10;100.00
54876;BME280;40764;48.472;8.166;2022-10-20T23:04:58;97985.94;;;14.25;100.00
54876;BME280;40764;48.472;8.166;2022-10-20T23:10:58;97995.09;;;14.72;100.00
54876;BME280;40764;48.472;8.166;2022-10-20T23:16:58;97996.13;;;15.14;100.00
54876;BME280;40764;48.472;8.166;2022-10-20T23:22:59;98011.25;;;15.29;100.00
54876;BME280;40764;48.472;8.166;2022-10-20T23:28:59;98011.94;;;15.26;100.00
54876;BME280;40764;48.472;8.166;2022-10-20T23:34:59;98003.34;;;15.28;100.00
54876;BME280;40764;48.472;8.166;2022-10-20T23:41:00;97989.09;;;15.26;100.00
54876;BME280;40764;48.472;8.166;2022-10-20T23:47:00;97990.03;;;15.30;100.00
54876;BME280;40764;48.472;8.166;2022-10-20T23:53:00;97989.88;;;15.35;100.00
54876;BME280;40764;48.472;8.166;2022-10-20T23:59:00;97976.75;;;15.32;100.00
